sensor_id;sensor_type;location;lat;lon;timestamp;P1;durP1;ratioP1;P2;durP2;ratioP2
82760;SDS011;72498;42.022;21.444;2024-03-02T00:00:34;32.78;;;19.27;;
82760;SDS011;72498;42.022;21.444;2024-03-02T00:03:04;30.70;;;17.65;;
82760;SDS011;72498;42.022;21.444;2024-03-02T00:05:30;31.50;;;18.67;;
82760;SDS011;72498;42.022;21.444;2024-03-02T00:07:57;33.95;;;19.27;;
82760;SDS011;72498;42.022;21.444;2024-03-02T00:10:28;33.03;;;19.85;;
82760;SDS011;72498;42.022;21.444;2024-03-02T00:13:11;29.23;;;18.80;;
82760;SDS011;72498;42.022;21.444;2024-03-02T00:18:12;31.15;;;19.95;;
82760;SDS011;72498;42.022;21.444;2024-03-02T00:20:42;34.17;;;18.67;;
82760;SDS011;72498;42.022;21.444;2024-03-02T00:23:08;29.75;;;18.38;;
82760;SDS011;72498;42.022;21.444;2024-03-02T00:25:39;29.83;;;17.60;;
82760;SDS011;72498;42.022;21.444;2024-03-02T00:28:27;32.53;;;19.70;;
82760;SDS011;72498;42.022;21.444;2024-03-02T00:33:28;29.30;;;18.13;;
82760;SDS011;72498;42.022;21.444;2024-03-02T00:35:56;36.67;;;21.33;;
82760;SDS011;72498;42.022;21.444;2024-03-02T00:38:22;62.08;;;33.28;;
82760;SDS011;72498;42.022;21.444;2024-03-02T00:40:50;46.47;;;27.35;;
82760;SDS011;72498;42.022;21.444;2024-03-02T00:43:38;53.05;;;28.30;;
82760;SDS011;72498;42.022;21.444;2024-03-02T00:46:02;35.17;;;22.55;;
82760;SDS011;72498;42.022;21.444;2024-03-02T00:48:33;28.92;;;18.73;;
82760;SDS011;72498;42.022;21.444;2024-03-02T00:51:03;24.77;;;15.15;;
82760;SDS011;72498;42.022;21.444;2024-03-02T00:53:29;25.65;;;15.52;;
82760;SDS011;72498;42.022;21.444;2024-03-02T00:56:00;22.30;;;14.18;;
82760;SDS011;72498;42.022;21.444;2024-03-02T00:58:27;24.25;;;15.02;;
82760;SDS011;72498;42.022;21.444;2024-03-02T01:00:53;24.67;;;15.07;;
82760;SDS011;72498;42.022;21.444;2024-03-02T01:03:21;26.10;;;14.88;;
82760;SDS011;72498;42.022;21.444;2024-03-02T01:05:47;31.95;;;19.55;;
82760;SDS011;72498;42.022;21.444;2024-03-02T01:08:13;41.95;;;24.58;;
82760;SDS011;72498;42.022;21.444;2024-03-02T01:10:41;49.88;;;27.50;;
82760;SDS011;72498;42.022;21.444;2024-03-02T01:13:07;35.85;;;19.95;;
82760;SDS011;72498;42.022;21.444;2024-03-02T01:15:33;42.10;;;23.20;;
82760;SDS011;72498;42.022;21.444;2024-03-02T01:17:59;40.45;;;22.48;;
82760;SDS011;72498;42.022;21.444;2024-03-02T01:20:26;34.78;;;19.33;;
82760;SDS011;72498;42.022;21.444;2024-03-02T01:22:52;31.73;;;19.00;;
82760;SDS011;72498;42.022;21.444;2024-03-02T01:25:20;30.88;;;18.85;;
82760;SDS011;72498;42.022;21.444;2024-03-02T01:27:47;32.03;;;17.67;;
82760;SDS011;72498;42.022;21.444;2024-03-02T01:30:13;31.55;;;17.00;;
82760;SDS011;72498;42.022;21.444;2024-03-02T01:32:40;33.17;;;19.75;;
82760;SDS011;72498;42.022;21.444;2024-03-02T01:35:06;31.70;;;19.88;;
82760;SDS011;72498;42.022;21.444;2024-03-02T01:37:33;31.95;;;18.65;;
82760;SDS011;72498;42.022;21.444;2024-03-02T01:40:00;32.28;;;19.02;;
82760;SDS011;72498;42.022;21.444;2024-03-02T01:42:26;33.78;;;19.13;;
82760;SDS011;72498;42.022;21.444;2024-03-02T01:44:56;31.70;;;17.83;;
82760;SDS011;72498;42.022;21.444;2024-03-02T01:47:32;30.20;;;18.80;;
82760;SDS011;72498;42.022;21.444;2024-03-02T01:50:02;33.33;;;19.83;;
82760;SDS011;72498;42.022;21.444;2024-03-02T01:52:28;36.70;;;19.73;;
82760;SDS011;72498;42.022;21.444;2024-03-02T01:54:55;39.72;;;21.25;;
82760;SDS011;72498;42.022;21.444;2024-03-02T01:57:21;38.20;;;22.10;;
82760;SDS011;72498;42.022;21.444;2024-03-02T01:59:47;40.80;;;23.67;;
82760;SDS011;72498;42.022;21.444;2024-03-02T02:02:15;44.40;;;25.13;;
82760;SDS011;72498;42.022;21.444;2024-03-02T02:04:41;43.25;;;24.33;;
82760;SDS011;72498;42.022;21.444;2024-03-02T02:07:08;46.45;;;25.83;;
82760;SDS011;72498;42.022;21.444;2024-03-02T02:09:34;38.47;;;25.00;;
82760;SDS011;72498;42.022;21.444;2024-03-02T02:12:00;40.20;;;25.30;;
82760;SDS011;72498;42.022;21.444;2024-03-02T02:14:27;42.90;;;24.08;;
82760;SDS011;72498;42.022;21.444;2024-03-02T02:16:54;39.63;;;23.50;;
82760;SDS011;72498;42.022;21.444;2024-03-02T02:19:20;45.70;;;24.58;;
82760;SDS011;72498;42.022;21.444;2024-03-02T02:21:46;41.97;;;23.63;;
82760;SDS011;72498;42.022;21.444;2024-03-02T02:24:12;42.05;;;23.77;;
82760;SDS011;72498;42.022;21.444;2024-03-02T02:26:38;39.60;;;22.35;;
82760;SDS011;72498;42.022;21.444;2024-03-02T02:29:05;35.22;;;21.42;;
82760;SDS011;72498;42.022;21.444;2024-03-02T02:31:37;38.97;;;19.98;;
82760;SDS011;72498;42.022;21.444;2024-03-02T02:34:04;37.20;;;21.10;;
82760;SDS011;72498;42.022;21.444;2024-03-02T02:36:31;37.15;;;21.05;;
82760;SDS011;72498;42.022;21.444;2024-03-02T02:38:57;33.67;;;18.77;;
82760;SDS011;72498;42.022;21.444;2024-03-02T02:41:24;33.60;;;20.48;;
82760;SDS011;72498;42.022;21.444;2024-03-02T02:43:50;34.35;;;20.58;;
82760;SDS011;72498;42.022;21.444;2024-03-02T02:46:16;34.55;;;19.25;;
82760;SDS011;72498;42.022;21.444;2024-03-02T02:48:42;36.42;;;21.38;;
82760;SDS011;72498;42.022;21.444;2024-03-02T02:51:09;40.47;;;21.33;;
82760;SDS011;72498;42.022;21.444;2024-03-02T02:53:35;32.95;;;18.98;;
82760;SDS011;72498;42.022;21.444;2024-03-02T02:56:07;30.23;;;18.15;;
82760;SDS011;72498;42.022;21.444;2024-03-02T02:58:33;40.00;;;19.23;;
82760;SDS011;72498;42.022;21.444;2024-03-02T03:00:59;37.28;;;20.40;;
82760;SDS011;72498;42.022;21.444;2024-03-02T03:03:25;34.90;;;18.52;;
82760;SDS011;72498;42.022;21.444;2024-03-02T03:05:51;32.30;;;18.75;;
82760;SDS011;72498;42.022;21.444;2024-03-02T03:08:17;28.42;;;17.40;;
82760;SDS011;72498;42.022;21.444;2024-03-02T03:10:43;27.67;;;15.77;;
82760;SDS011;72498;42.022;21.444;2024-03-02T03:13:10;29.13;;;16.55;;
82760;SDS011;72498;42.022;21.444;2024-03-02T03:15:36;28.83;;;17.30;;
82760;SDS011;72498;42.022;21.444;2024-03-02T03:18:05;27.83;;;17.05;;
82760;SDS011;72498;42.022;21.444;2024-03-02T03:20:32;31.52;;;18.75;;
82760;SDS011;72498;42.022;21.444;2024-03-02T03:22:59;33.03;;;18.35;;
82760;SDS011;72498;42.022;21.444;2024-03-02T03:25:25;28.35;;;17.63;;
82760;SDS011;72498;42.022;21.444;2024-03-02T03:27:51;31.48;;;18.25;;
82760;SDS011;72498;42.022;21.444;2024-03-02T03:30:17;32.72;;;18.45;;
82760;SDS011;72498;42.022;21.444;2024-03-02T03:32:44;31.90;;;18.23;;
82760;SDS011;72498;42.022;21.444;2024-03-02T03:35:10;31.83;;;18.92;;
82760;SDS011;72498;42.022;21.444;2024-03-02T03:37:38;31.42;;;19.17;;
82760;SDS011;72498;42.022;21.444;2024-03-02T03:40:04;33.35;;;19.60;;
82760;SDS011;72498;42.022;21.444;2024-03-02T03:42:36;29.90;;;19.88;;
82760;SDS011;72498;42.022;21.444;2024-03-02T03:45:03;42.22;;;23.98;;
82760;SDS011;72498;42.022;21.444;2024-03-02T03:47:31;35.50;;;22.27;;
82760;SDS011;72498;42.022;21.444;2024-03-02T03:49:57;45.13;;;24.92;;
82760;SDS011;72498;42.022;21.444;2024-03-02T03:52:23;45.90;;;25.80;;
82760;SDS011;72498;42.022;21.444;2024-03-02T03:54:49;45.42;;;26.70;;
82760;SDS011;72498;42.022;21.444;2024-03-02T03:57:16;46.25;;;26.48;;
82760;SDS011;72498;42.022;21.444;2024-03-02T03:59:42;42.90;;;24.55;;
82760;SDS011;72498;42.022;21.444;2024-03-02T04:02:09;44.75;;;25.50;;
82760;SDS011;72498;42.022;21.444;2024-03-02T04:07:03;48.13;;;26.92;;
82760;SDS011;72498;42.022;21.444;2024-03-02T04:09:30;49.28;;;27.30;;
82760;SDS011;72498;42.022;21.444;2024-03-02T04:11:56;50.95;;;27.73;;
82760;SDS011;72498;42.022;21.444;2024-03-02T04:14:22;44.35;;;26.30;;
82760;SDS011;72498;42.022;21.444;2024-03-02T04:16:48;48.42;;;26.45;;
82760;SDS011;72498;42.022;21.444;2024-03-02T04:19:14;54.13;;;27.10;;
82760;SDS011;72498;42.022;21.444;2024-03-02T04:21:40;50.50;;;28.73;;
82760;SDS011;72498;42.022;21.444;2024-03-02T04:24:07;54.08;;;27.17;;
82760;SDS011;72498;42.022;21.444;2024-03-02T04:26:33;56.80;;;29.40;;
82760;SDS011;72498;42.022;21.444;2024-03-02T04:28:59;52.20;;;29.85;;
82760;SDS011;72498;42.022;21.444;2024-03-02T04:31:26;46.22;;;27.75;;
82760;SDS011;72498;42.022;21.444;2024-03-02T04:33:53;47.17;;;27.90;;
82760;SDS011;72498;42.022;21.444;2024-03-02T04:36:19;50.95;;;28.60;;
82760;SDS011;72498;42.022;21.444;2024-03-02T04:38:46;54.40;;;28.33;;
82760;SDS011;72498;42.022;21.444;2024-03-02T04:41:12;53.42;;;27.38;;
82760;SDS011;72498;42.022;21.444;2024-03-02T04:43:38;47.42;;;27.85;;
82760;SDS011;72498;42.022;21.444;2024-03-02T04:46:05;47.00;;;25.98;;
82760;SDS011;72498;42.022;21.444;2024-03-02T04:48:32;46.90;;;26.45;;
82760;SDS011;72498;42.022;21.444;2024-03-02T04:50:59;50.63;;;27.85;;
82760;SDS011;72498;42.022;21.444;2024-03-02T04:53:25;47.15;;;27.05;;
82760;SDS011;72498;42.022;21.444;2024-03-02T04:55:51;49.47;;;27.80;;
82760;SDS011;72498;42.022;21.444;2024-03-02T04:58:20;51.60;;;27.90;;
82760;SDS011;72498;42.022;21.444;2024-03-02T05:00:47;51.53;;;29.67;;
82760;SDS011;72498;42.022;21.444;2024-03-02T05:03:13;49.25;;;27.90;;
82760;SDS011;72498;42.022;21.444;2024-03-02T05:05:39;50.08;;;28.63;;
82760;SDS011;72498;42.022;21.444;2024-03-02T05:08:05;51.80;;;27.75;;
82760;SDS011;72498;42.022;21.444;2024-03-02T05:10:32;50.47;;;29.73;;
82760;SDS011;72498;42.022;21.444;2024-03-02T05:12:59;53.72;;;27.77;;
82760;SDS011;72498;42.022;21.444;2024-03-02T05:15:26;44.80;;;26.25;;
82760;SDS011;72498;42.022;21.444;2024-03-02T05:17:52;49.10;;;26.88;;
82760;SDS011;72498;42.022;21.444;2024-03-02T05:20:18;53.42;;;28.67;;
82760;SDS011;72498;42.022;21.444;2024-03-02T05:22:44;46.17;;;24.98;;
82760;SDS011;72498;42.022;21.444;2024-03-02T05:25:12;50.17;;;26.15;;
82760;SDS011;72498;42.022;21.444;2024-03-02T05:27:38;49.58;;;26.60;;
82760;SDS011;72498;42.022;21.444;2024-03-02T05:30:04;54.20;;;27.35;;
82760;SDS011;72498;42.022;21.444;2024-03-02T05:32:31;49.55;;;26.77;;
82760;SDS011;72498;42.022;21.444;2024-03-02T05:34:57;50.83;;;26.42;;
82760;SDS011;72498;42.022;21.444;2024-03-02T05:37:23;44.72;;;25.63;;
82760;SDS011;72498;42.022;21.444;2024-03-02T05:39:50;42.33;;;24.67;;
82760;SDS011;72498;42.022;21.444;2024-03-02T05:42:16;73.07;;;24.83;;
82760;SDS011;72498;42.022;21.444;2024-03-02T05:44:42;47.30;;;23.85;;
82760;SDS011;72498;42.022;21.444;2024-03-02T05:47:08;46.55;;;22.63;;
82760;SDS011;72498;42.022;21.444;2024-03-02T05:49:35;37.03;;;21.75;;
82760;SDS011;72498;42.022;21.444;2024-03-02T05:52:01;41.00;;;22.20;;
82760;SDS011;72498;42.022;21.444;2024-03-02T05:54:28;38.88;;;21.40;;
82760;SDS011;72498;42.022;21.444;2024-03-02T05:56:54;41.78;;;23.35;;
82760;SDS011;72498;42.022;21.444;2024-03-02T05:59:20;43.55;;;23.75;;
82760;SDS011;72498;42.022;21.444;2024-03-02T06:01:46;44.47;;;23.48;;
82760;SDS011;72498;42.022;21.444;2024-03-02T06:04:13;45.92;;;23.45;;
82760;SDS011;72498;42.022;21.444;2024-03-02T06:06:39;44.30;;;22.33;;
82760;SDS011;72498;42.022;21.444;2024-03-02T06:09:06;46.72;;;22.45;;
82760;SDS011;72498;42.022;21.444;2024-03-02T06:11:38;40.13;;;20.38;;
82760;SDS011;72498;42.022;21.444;2024-03-02T06:14:04;36.00;;;20.40;;
82760;SDS011;72498;42.022;21.444;2024-03-02T06:16:31;39.72;;;19.67;;
82760;SDS011;72498;42.022;21.444;2024-03-02T06:18:57;32.42;;;18.30;;
82760;SDS011;72498;42.022;21.444;2024-03-02T06:21:24;33.20;;;19.13;;
82760;SDS011;72498;42.022;21.444;2024-03-02T06:23:50;29.92;;;18.05;;
82760;SDS011;72498;42.022;21.444;2024-03-02T06:26:18;34.47;;;18.58;;
82760;SDS011;72498;42.022;21.444;2024-03-02T06:28:44;31.33;;;18.80;;
82760;SDS011;72498;42.022;21.444;2024-03-02T06:31:11;33.92;;;18.13;;
82760;SDS011;72498;42.022;21.444;2024-03-02T06:33:37;32.85;;;17.88;;
82760;SDS011;72498;42.022;21.444;2024-03-02T06:36:03;30.80;;;17.15;;
82760;SDS011;72498;42.022;21.444;2024-03-02T06:38:39;29.02;;;17.50;;
82760;SDS011;72498;42.022;21.444;2024-03-02T06:41:05;30.17;;;17.30;;
82760;SDS011;72498;42.022;21.444;2024-03-02T06:43:34;31.70;;;16.83;;
82760;SDS011;72498;42.022;21.444;2024-03-02T06:46:00;25.10;;;16.70;;
82760;SDS011;72498;42.022;21.444;2024-03-02T06:48:27;29.88;;;17.35;;
82760;SDS011;72498;42.022;21.444;2024-03-02T06:50:55;45.60;;;26.08;;
82760;SDS011;72498;42.022;21.444;2024-03-02T06:53:22;38.58;;;24.23;;
82760;SDS011;72498;42.022;21.444;2024-03-02T06:55:48;38.72;;;23.35;;
82760;SDS011;72498;42.022;21.444;2024-03-02T06:58:14;41.15;;;25.02;;
82760;SDS011;72498;42.022;21.444;2024-03-02T07:00:42;35.53;;;21.80;;
82760;SDS011;72498;42.022;21.444;2024-03-02T07:03:12;35.25;;;22.38;;
82760;SDS011;72498;42.022;21.444;2024-03-02T07:05:39;39.90;;;24.08;;
82760;SDS011;72498;42.022;21.444;2024-03-02T07:08:05;33.67;;;21.63;;
82760;SDS011;72498;42.022;21.444;2024-03-02T07:10:31;26.35;;;17.65;;
82760;SDS011;72498;42.022;21.444;2024-03-02T07:13:00;33.28;;;19.52;;
82760;SDS011;72498;42.022;21.444;2024-03-02T07:15:27;35.25;;;19.10;;
82760;SDS011;72498;42.022;21.444;2024-03-02T07:17:53;24.38;;;15.05;;
82760;SDS011;72498;42.022;21.444;2024-03-02T07:20:19;22.48;;;13.80;;
82760;SDS011;72498;42.022;21.444;2024-03-02T07:22:45;22.05;;;14.57;;
82760;SDS011;72498;42.022;21.444;2024-03-02T07:25:11;25.25;;;13.65;;
82760;SDS011;72498;42.022;21.444;2024-03-02T07:27:38;26.05;;;15.02;;
82760;SDS011;72498;42.022;21.444;2024-03-02T07:30:04;28.33;;;14.32;;
82760;SDS011;72498;42.022;21.444;2024-03-02T07:32:30;22.55;;;12.77;;
82760;SDS011;72498;42.022;21.444;2024-03-02T07:34:57;19.65;;;11.80;;
82760;SDS011;72498;42.022;21.444;2024-03-02T07:37:23;18.30;;;9.45;;
82760;SDS011;72498;42.022;21.444;2024-03-02T07:39:50;16.15;;;8.68;;
82760;SDS011;72498;42.022;21.444;2024-03-02T07:42:16;16.13;;;10.07;;
82760;SDS011;72498;42.022;21.444;2024-03-02T07:44:45;18.75;;;9.80;;
82760;SDS011;72498;42.022;21.444;2024-03-02T07:47:12;14.25;;;7.50;;
82760;SDS011;72498;42.022;21.444;2024-03-02T07:49:38;15.48;;;7.35;;
82760;SDS011;72498;42.022;21.444;2024-03-02T07:52:05;13.93;;;7.25;;
82760;SDS011;72498;42.022;21.444;2024-03-02T07:54:32;15.27;;;7.93;;
82760;SDS011;72498;42.022;21.444;2024-03-02T07:56:58;25.08;;;7.85;;
82760;SDS011;72498;42.022;21.444;2024-03-02T07:59:26;38.72;;;8.43;;
82760;SDS011;72498;42.022;21.444;2024-03-02T08:01:52;13.73;;;7.60;;
82760;SDS011;72498;42.022;21.444;2024-03-02T08:04:23;16.05;;;7.65;;
82760;SDS011;72498;42.022;21.444;2024-03-02T08:06:49;58.05;;;10.20;;
82760;SDS011;72498;42.022;21.444;2024-03-02T08:09:15;27.60;;;7.78;;
82760;SDS011;72498;42.022;21.444;2024-03-02T08:11:42;12.48;;;7.20;;
82760;SDS011;72498;42.022;21.444;2024-03-02T08:14:08;13.02;;;6.18;;
82760;SDS011;72498;42.022;21.444;2024-03-02T08:16:34;12.82;;;6.78;;
82760;SDS011;72498;42.022;21.444;2024-03-02T08:19:00;11.30;;;6.25;;
82760;SDS011;72498;42.022;21.444;2024-03-02T08:21:26;9.40;;;5.43;;
82760;SDS011;72498;42.022;21.444;2024-03-02T08:23:55;11.40;;;5.22;;
82760;SDS011;72498;42.022;21.444;2024-03-02T08:26:22;11.10;;;5.72;;
82760;SDS011;72498;42.022;21.444;2024-03-02T08:28:48;11.23;;;5.25;;
82760;SDS011;72498;42.022;21.444;2024-03-02T08:31:16;11.98;;;6.07;;
82760;SDS011;72498;42.022;21.444;2024-03-02T08:33:45;9.98;;;4.93;;
82760;SDS011;72498;42.022;21.444;2024-03-02T08:36:11;10.45;;;5.25;;
82760;SDS011;72498;42.022;21.444;2024-03-02T08:38:39;8.93;;;4.97;;
82760;SDS011;72498;42.022;21.444;2024-03-02T08:41:06;11.30;;;5.65;;
82760;SDS011;72498;42.022;21.444;2024-03-02T08:43:32;9.63;;;5.25;;
82760;SDS011;72498;42.022;21.444;2024-03-02T08:45:58;13.60;;;5.55;;
82760;SDS011;72498;42.022;21.444;2024-03-02T08:48:24;13.52;;;5.57;;
82760;SDS011;72498;42.022;21.444;2024-03-02T08:50:51;11.55;;;5.20;;
82760;SDS011;72498;42.022;21.444;2024-03-02T08:53:17;13.88;;;5.53;;
82760;SDS011;72498;42.022;21.444;2024-03-02T08:55:45;13.40;;;5.78;;
82760;SDS011;72498;42.022;21.444;2024-03-02T08:58:15;11.80;;;6.03;;
82760;SDS011;72498;42.022;21.444;2024-03-02T09:00:41;14.95;;;6.40;;
82760;SDS011;72498;42.022;21.444;2024-03-02T09:03:08;12.57;;;6.55;;
82760;SDS011;72498;42.022;21.444;2024-03-02T09:05:36;14.18;;;6.28;;
82760;SDS011;72498;42.022;21.444;2024-03-02T09:08:05;18.20;;;9.35;;
82760;SDS011;72498;42.022;21.444;2024-03-02T09:10:33;14.25;;;7.88;;
82760;SDS011;72498;42.022;21.444;2024-03-02T09:13:00;12.77;;;7.57;;
82760;SDS011;72498;42.022;21.444;2024-03-02T09:15:27;16.20;;;7.60;;
82760;SDS011;72498;42.022;21.444;2024-03-02T09:17:56;15.85;;;7.30;;
82760;SDS011;72498;42.022;21.444;2024-03-02T09:20:22;11.80;;;6.65;;
82760;SDS011;72498;42.022;21.444;2024-03-02T09:22:48;13.43;;;7.53;;
82760;SDS011;72498;42.022;21.444;2024-03-02T09:25:16;15.95;;;7.95;;
82760;SDS011;72498;42.022;21.444;2024-03-02T09:27:45;18.05;;;6.85;;
82760;SDS011;72498;42.022;21.444;2024-03-02T09:30:14;12.15;;;6.93;;
82760;SDS011;72498;42.022;21.444;2024-03-02T09:32:41;15.15;;;7.78;;
82760;SDS011;72498;42.022;21.444;2024-03-02T09:35:07;12.50;;;7.85;;
82760;SDS011;72498;42.022;21.444;2024-03-02T09:37:37;12.20;;;7.43;;
82760;SDS011;72498;42.022;21.444;2024-03-02T09:40:06;18.90;;;10.35;;
82760;SDS011;72498;42.022;21.444;2024-03-02T09:42:42;18.73;;;8.68;;
82760;SDS011;72498;42.022;21.444;2024-03-02T09:45:17;17.45;;;9.93;;
82760;SDS011;72498;42.022;21.444;2024-03-02T09:47:52;18.80;;;10.98;;
82760;SDS011;72498;42.022;21.444;2024-03-02T09:50:31;23.42;;;12.40;;
82760;SDS011;72498;42.022;21.444;2024-03-02T09:52:57;18.15;;;11.35;;
82760;SDS011;72498;42.022;21.444;2024-03-02T09:55:28;20.42;;;10.40;;
82760;SDS011;72498;42.022;21.444;2024-03-02T09:57:57;16.52;;;10.02;;
82760;SDS011;72498;42.022;21.444;2024-03-02T10:00:44;16.48;;;10.05;;
82760;SDS011;72498;42.022;21.444;2024-03-02T10:03:12;15.85;;;10.77;;
82760;SDS011;72498;42.022;21.444;2024-03-02T10:05:44;15.30;;;9.65;;
82760;SDS011;72498;42.022;21.444;2024-03-02T10:08:12;17.98;;;10.13;;
82760;SDS011;72498;42.022;21.444;2024-03-02T10:10:45;17.60;;;9.95;;
82760;SDS011;72498;42.022;21.444;2024-03-02T10:13:12;16.38;;;9.90;;
82760;SDS011;72498;42.022;21.444;2024-03-02T10:15:46;20.15;;;9.95;;
82760;SDS011;72498;42.022;21.444;2024-03-02T10:18:13;15.98;;;9.10;;
82760;SDS011;72498;42.022;21.444;2024-03-02T10:20:42;14.48;;;8.73;;
82760;SDS011;72498;42.022;21.444;2024-03-02T10:23:14;19.05;;;7.22;;
82760;SDS011;72498;42.022;21.444;2024-03-02T10:25:46;16.77;;;7.85;;
82760;SDS011;72498;42.022;21.444;2024-03-02T10:28:13;14.07;;;7.82;;
82760;SDS011;72498;42.022;21.444;2024-03-02T10:30:39;14.45;;;8.18;;
82760;SDS011;72498;42.022;21.444;2024-03-02T10:33:24;14.50;;;7.32;;
82760;SDS011;72498;42.022;21.444;2024-03-02T10:35:50;14.13;;;7.75;;
82760;SDS011;72498;42.022;21.444;2024-03-02T10:38:16;16.75;;;7.63;;
82760;SDS011;72498;42.022;21.444;2024-03-02T10:40:46;13.20;;;7.78;;
82760;SDS011;72498;42.022;21.444;2024-03-02T10:43:15;12.70;;;7.05;;
82760;SDS011;72498;42.022;21.444;2024-03-02T10:45:41;14.13;;;6.72;;
82760;SDS011;72498;42.022;21.444;2024-03-02T10:48:08;14.23;;;7.05;;
82760;SDS011;72498;42.022;21.444;2024-03-02T10:50:34;13.63;;;7.07;;
82760;SDS011;72498;42.022;21.444;2024-03-02T10:53:02;13.90;;;7.28;;
82760;SDS011;72498;42.022;21.444;2024-03-02T10:55:30;11.43;;;6.38;;
82760;SDS011;72498;42.022;21.444;2024-03-02T10:57:57;12.77;;;6.13;;
82760;SDS011;72498;42.022;21.444;2024-03-02T11:00:30;13.02;;;5.90;;
82760;SDS011;72498;42.022;21.444;2024-03-02T11:03:06;11.30;;;5.93;;
82760;SDS011;72498;42.022;21.444;2024-03-02T11:05:39;16.85;;;7.38;;
82760;SDS011;72498;42.022;21.444;2024-03-02T11:08:07;13.40;;;7.43;;
82760;SDS011;72498;42.022;21.444;2024-03-02T11:10:35;13.57;;;6.95;;
82760;SDS011;72498;42.022;21.444;2024-03-02T11:13:09;14.57;;;7.40;;
82760;SDS011;72498;42.022;21.444;2024-03-02T11:15:36;13.70;;;6.93;;
82760;SDS011;72498;42.022;21.444;2024-03-02T11:18:09;12.93;;;7.13;;
82760;SDS011;72498;42.022;21.444;2024-03-02T11:20:36;11.82;;;5.82;;
82760;SDS011;72498;42.022;21.444;2024-03-02T11:23:08;17.05;;;8.10;;
82760;SDS011;72498;42.022;21.444;2024-03-02T11:25:34;16.70;;;6.93;;
82760;SDS011;72498;42.022;21.444;2024-03-02T11:28:05;15.23;;;7.95;;
82760;SDS011;72498;42.022;21.444;2024-03-02T11:33:08;16.90;;;7.30;;
82760;SDS011;72498;42.022;21.444;2024-03-02T11:38:09;11.40;;;6.30;;
82760;SDS011;72498;42.022;21.444;2024-03-02T11:40:35;19.92;;;7.20;;
82760;SDS011;72498;42.022;21.444;2024-03-02T11:43:01;13.18;;;6.93;;
82760;SDS011;72498;42.022;21.444;2024-03-02T11:45:28;14.63;;;5.57;;
82760;SDS011;72498;42.022;21.444;2024-03-02T11:50:34;12.63;;;5.85;;
82760;SDS011;72498;42.022;21.444;2024-03-02T11:53:06;12.63;;;6.50;;
82760;SDS011;72498;42.022;21.444;2024-03-02T11:55:36;11.15;;;5.53;;
82760;SDS011;72498;42.022;21.444;2024-03-02T11:58:07;13.77;;;5.78;;
82760;SDS011;72498;42.022;21.444;2024-03-02T12:00:35;11.02;;;4.95;;
82760;SDS011;72498;42.022;21.444;2024-03-02T12:03:03;10.23;;;5.50;;
82760;SDS011;72498;42.022;21.444;2024-03-02T12:05:33;12.57;;;5.25;;
82760;SDS011;72498;42.022;21.444;2024-03-02T12:08:03;13.15;;;6.18;;
82760;SDS011;72498;42.022;21.444;2024-03-02T12:10:29;13.57;;;6.00;;
82760;SDS011;72498;42.022;21.444;2024-03-02T12:13:05;15.00;;;6.28;;
82760;SDS011;72498;42.022;21.444;2024-03-02T12:15:35;10.70;;;5.50;;
82760;SDS011;72498;42.022;21.444;2024-03-02T12:18:03;11.70;;;5.32;;
82760;SDS011;72498;42.022;21.444;2024-03-02T12:20:31;10.82;;;4.90;;
82760;SDS011;72498;42.022;21.444;2024-03-02T12:23:01;12.52;;;5.45;;
82760;SDS011;72498;42.022;21.444;2024-03-02T12:25:28;13.07;;;5.57;;
82760;SDS011;72498;42.022;21.444;2024-03-02T12:27:57;10.65;;;5.10;;
82760;SDS011;72498;42.022;21.444;2024-03-02T12:30:26;11.02;;;5.43;;
82760;SDS011;72498;42.022;21.444;2024-03-02T12:32:56;13.27;;;5.82;;
82760;SDS011;72498;42.022;21.444;2024-03-02T12:35:31;15.18;;;4.88;;
82760;SDS011;72498;42.022;21.444;2024-03-02T12:38:00;12.48;;;4.55;;
82760;SDS011;72498;42.022;21.444;2024-03-02T12:48:14;13.30;;;4.72;;
82760;SDS011;72498;42.022;21.444;2024-03-02T12:50:40;13.38;;;4.85;;
82760;SDS011;72498;42.022;21.444;2024-03-02T12:53:15;14.63;;;4.63;;
82760;SDS011;72498;42.022;21.444;2024-03-02T12:56:02;13.48;;;4.47;;
82760;SDS011;72498;42.022;21.444;2024-03-02T12:58:29;13.07;;;4.55;;
82760;SDS011;72498;42.022;21.444;2024-03-02T13:03:52;12.88;;;4.93;;
82760;SDS011;72498;42.022;21.444;2024-03-02T13:06:22;11.43;;;5.75;;
82760;SDS011;72498;42.022;21.444;2024-03-02T13:08:49;13.90;;;4.63;;
82760;SDS011;72498;42.022;21.444;2024-03-02T13:11:25;13.23;;;4.45;;
82760;SDS011;72498;42.022;21.444;2024-03-02T13:13:58;16.98;;;5.03;;
82760;SDS011;72498;42.022;21.444;2024-03-02T13:16:29;12.98;;;4.18;;
82760;SDS011;72498;42.022;21.444;2024-03-02T13:19:11;10.20;;;3.88;;
82760;SDS011;72498;42.022;21.444;2024-03-02T13:21:41;8.52;;;3.90;;
82760;SDS011;72498;42.022;21.444;2024-03-02T13:24:10;14.00;;;4.60;;
82760;SDS011;72498;42.022;21.444;2024-03-02T13:26:37;9.80;;;4.55;;
82760;SDS011;72498;42.022;21.444;2024-03-02T13:29:04;12.57;;;4.55;;
82760;SDS011;72498;42.022;21.444;2024-03-02T13:31:59;9.85;;;4.32;;
82760;SDS011;72498;42.022;21.444;2024-03-02T13:34:28;16.13;;;4.38;;
82760;SDS011;72498;42.022;21.444;2024-03-02T13:36:54;12.60;;;4.88;;
82760;SDS011;72498;42.022;21.444;2024-03-02T13:42:02;10.68;;;5.15;;
82760;SDS011;72498;42.022;21.444;2024-03-02T13:44:34;12.13;;;4.40;;
82760;SDS011;72498;42.022;21.444;2024-03-02T13:47:27;10.32;;;3.90;;
82760;SDS011;72498;42.022;21.444;2024-03-02T13:49:53;13.25;;;4.80;;
82760;SDS011;72498;42.022;21.444;2024-03-02T13:52:30;11.52;;;5.05;;
82760;SDS011;72498;42.022;21.444;2024-03-02T13:54:59;14.80;;;4.63;;
82760;SDS011;72498;42.022;21.444;2024-03-02T13:57:28;10.68;;;4.57;;
82760;SDS011;72498;42.022;21.444;2024-03-02T14:00:15;13.27;;;4.95;;
82760;SDS011;72498;42.022;21.444;2024-03-02T14:03:16;13.07;;;4.78;;
82760;SDS011;72498;42.022;21.444;2024-03-02T14:05:54;16.40;;;5.00;;
82760;SDS011;72498;42.022;21.444;2024-03-02T14:08:23;13.73;;;4.65;;
82760;SDS011;72498;42.022;21.444;2024-03-02T14:10:51;15.98;;;5.32;;
82760;SDS011;72498;42.022;21.444;2024-03-02T14:13:25;13.80;;;4.85;;
82760;SDS011;72498;42.022;21.444;2024-03-02T14:16:04;10.35;;;4.45;;
82760;SDS011;72498;42.022;21.444;2024-03-02T14:18:31;16.50;;;4.82;;
82760;SDS011;72498;42.022;21.444;2024-03-02T14:21:06;11.77;;;4.65;;
82760;SDS011;72498;42.022;21.444;2024-03-02T14:23:38;9.40;;;4.70;;
82760;SDS011;72498;42.022;21.444;2024-03-02T14:26:36;12.70;;;4.63;;
82760;SDS011;72498;42.022;21.444;2024-03-02T14:29:07;12.88;;;4.43;;
82760;SDS011;72498;42.022;21.444;2024-03-02T14:31:34;12.57;;;3.75;;
82760;SDS011;72498;42.022;21.444;2024-03-02T14:34:21;12.60;;;3.78;;
82760;SDS011;72498;42.022;21.444;2024-03-02T14:36:51;12.95;;;4.35;;
82760;SDS011;72498;42.022;21.444;2024-03-02T14:39:22;15.02;;;5.10;;
82760;SDS011;72498;42.022;21.444;2024-03-02T14:41:50;8.80;;;3.97;;
82760;SDS011;72498;42.022;21.444;2024-03-02T14:44:16;12.32;;;3.95;;
82760;SDS011;72498;42.022;21.444;2024-03-02T14:46:46;14.18;;;3.90;;
82760;SDS011;72498;42.022;21.444;2024-03-02T14:49:34;12.52;;;4.32;;
82760;SDS011;72498;42.022;21.444;2024-03-02T14:52:09;13.63;;;4.68;;